Time;durP1;ratioP1;P1;durP2;ratioP2;P2;SDS_P1;SDS_P2;PMS_P1;PMS_P2;Temp;Humidity;BMP_temperature;BMP_pressure;BME280_temperature;BME280_humidity;BME280_pressure;Samples;Min_cycle;Max_cycle;Signal;HPM_P1;HPM_P2
2022/09/27 00:00:36;;;;;;;5.70;4.87;;;;;;;13.65;72.00;98396.92;1752667;81;20889;-44
2022/09/27 00:03:04;;;;;;;9.35;5.10;;;;;;;13.63;71.98;98389.73;1752343;81;21037;-44
2022/09/27 00:05:31;;;;;;;5.97;4.80;;;;;;;13.61;71.97;98388.76;1752388;81;21045;-44
2022/09/27 00:07:58;;;;;;;7.42;5.33;;;;;;;13.62;72.00;98385.45;1752307;81;21299;-44
2022/09/27 00:10:27;;;;;;;6.40;5.65;;;;;;;13.62;72.15;98373.19;1752158;81;21007;-44
2022/09/27 00:12:55;;;;;;;5.72;5.22;;;;;;;13.58;72.19;98374.59;1752279;81;21015;-44
2022/09/27 00:15:22;;;;;;;6.60;4.80;;;;;;;13.52;72.33;98373.48;1752515;81;21039;-44
2022/09/27 00:17:52;;;;;;;6.40;5.20;;;;;;;13.52;72.43;98376.78;1752359;81;21080;-44
2022/09/27 00:20:20;;;;;;;6.97;5.15;;;;;;;13.53;72.43;98365.50;1752446;81;21274;-44
2022/09/27 00:22:48;;;;;;;6.00;5.30;;;;;;;13.53;72.57;98356.55;1752266;81;21004;-44
2022/09/27 00:25:16;;;;;;;10.65;5.62;;;;;;;13.53;72.66;98356.55;1752274;81;21020;-44
2022/09/27 00:27:43;;;;;;;5.47;4.67;;;;;;;13.49;72.69;98351.92;1754392;81;21528;-44
2022/09/27 00:30:12;;;;;;;6.78;4.97;;;;;;;13.53;72.68;98353.83;1761584;81;21468;-44
2022/09/27 00:32:40;;;;;;;13.18;5.58;;;;;;;13.57;72.53;98343.09;1762034;80;21769;-44
2022/09/27 00:35:08;;;;;;;8.63;5.92;;;;;;;13.58;72.64;98339.78;1761400;81;21009;-44
2022/09/27 00:37:36;;;;;;;6.97;5.40;;;;;;;13.56;72.74;98341.53;1761589;80;20986;-44
2022/09/27 00:40:05;;;;;;;5.97;5.20;;;;;;;13.54;72.81;98336.32;1761334;81;21013;-44
2022/09/27 00:42:35;;;;;;;7.50;5.00;;;;;;;13.57;72.78;98336.28;1761531;81;21593;-44
2022/09/27 00:45:12;;;;;;;6.47;5.42;;;;;;;13.61;72.71;98330.20;1761533;81;21159;-45
2022/09/27 00:47:57;;;;;;;7.47;5.50;;;;;;;13.66;72.68;98324.91;1762172;80;21009;-44
2022/09/27 00:50:36;;;;;;;6.75;5.67;;;;;;;13.65;72.67;98318.68;1761798;81;21005;-44
2022/09/27 00:53:17;;;;;;;7.70;6.23;;;;;;;13.62;72.71;98319.50;1762088;80;21515;-44
2022/09/27 00:55:53;;;;;;;9.05;5.80;;;;;;;13.59;72.75;98317.59;1761609;81;21093;-43
2022/09/27 00:58:27;;;;;;;6.50;5.83;;;;;;;13.55;72.85;98320.95;1760917;81;21171;-43
2022/09/27 01:00:58;;;;;;;9.93;5.83;;;;;;;13.61;72.79;98316.59;1761141;81;20969;-44
2022/09/27 01:03:30;;;;;;;7.08;5.80;;;;;;;13.65;72.69;98307.05;1761914;81;21076;-44
2022/09/27 01:05:57;;;;;;;7.20;6.08;;;;;;;13.65;72.74;98304.32;1736203;81;21069;-44
2022/09/27 01:08:25;;;;;;;7.47;5.35;;;;;;;13.63;72.76;98299.86;1761397;81;21022;-44
2022/09/27 01:11:10;;;;;;;8.28;5.53;;;;;;;13.65;72.73;98296.15;1761610;80;22040;-44
2022/09/27 01:13:43;;;;;;;7.60;5.75;;;;;;;13.71;72.59;98289.06;1761347;81;21020;-44
2022/09/27 01:16:16;;;;;;;7.83;5.92;;;;;;;13.73;72.48;98277.18;1761683;81;21461;-44
2022/09/27 01:18:55;;;;;;;9.25;6.10;;;;;;;13.71;72.51;98280.89;1761577;81;21532;-44
2022/09/27 01:21:43;;;;;;;7.95;5.70;;;;;;;13.68;72.55;98272.17;1757576;81;21030;-44
2022/09/27 01:24:43;;;;;;;6.22;5.22;;;;;;;13.64;72.65;98266.77;1761399;81;23176;-44
2022/09/27 01:27:25;;;;;;;8.45;5.45;;;;;;;13.63;72.67;98276.70;1754817;80;20984;-44
2022/09/27 01:30:18;;;;;;;9.85;6.00;;;;;;;13.63;72.69;98273.98;1782198;80;20980;-44
2022/09/27 01:33:12;;;;;;;6.70;6.00;;;;;;;13.60;72.82;98279.66;1783239;80;21024;-44
2022/09/27 01:36:05;;;;;;;8.30;6.05;;;;;;;13.56;72.95;98268.59;1783217;80;21052;-43
2022/09/27 01:39:08;;;;;;;9.05;6.17;;;;;;;13.52;73.00;98270.00;1783276;80;20957;-44
2022/09/27 01:42:01;;;;;;;9.83;5.78;;;;;;;13.49;73.11;98271.60;1744220;80;21522;-44
2022/09/27 01:44:54;;;;;;;7.37;6.58;;;;;;;13.52;73.16;98272.73;1781788;80;21536;-43
2022/09/27 01:47:25;;;;;;;10.40;6.83;;;;;;;13.55;73.37;98262.98;1783361;80;21619;-43
2022/09/27 01:50:09;;;;;;;9.43;6.35;;;;;;;13.57;73.35;98260.62;1779840;80;21034;-44
2022/09/27 01:52:42;;;;;;;7.80;6.28;;;;;;;13.58;73.26;98254.00;1780616;80;21206;-44
2022/09/27 01:55:11;;;;;;;6.30;5.70;;;;;;;13.56;73.26;98244.86;1780578;80;20929;-44
2022/09/27 01:57:49;;;;;;;8.73;5.92;;;;;;;13.61;73.10;98246.37;1780839;80;21025;-44
2022/09/27 02:00:18;;;;;;;8.50;6.47;;;;;;;13.60;73.17;98242.90;1780042;80;21000;-44
2022/09/27 02:02:58;;;;;;;8.73;6.80;;;;;;;13.59;73.25;98234.55;1780604;80;21025;-44
2022/09/27 02:05:33;;;;;;;7.25;6.08;;;;;;;13.59;73.28;98240.58;1780660;80;21267;-44
2022/09/27 02:08:07;;;;;;;9.73;6.28;;;;;;;13.59;73.28;98241.34;1779883;80;20988;-44
2022/09/27 02:10:38;;;;;;;8.85;6.60;;;;;;;13.63;73.24;98235.27;1780692;80;21004;-44
2022/09/27 02:13:22;;;;;;;9.65;6.70;;;;;;;13.67;73.22;98231.13;1732177;82;21577;-44
2022/09/27 02:16:26;;;;;;;7.62;6.80;;;;;;;13.65;73.25;98226.70;1732908;82;21040;-43
2022/09/27 02:19:13;;;;;;;8.85;6.55;;;;;;;13.60;73.15;98227.15;1732590;82;21104;-43
2022/09/27 02:22:17;;;;;;;7.28;6.50;;;;;;;13.56;73.35;98220.94;1732704;82;21035;-43
2022/09/27 02:24:54;;;;;;;10.05;7.70;;;;;;;13.57;73.43;98222.50;1700610;82;21019;-43
2022/09/27 02:27:25;;;;;;;10.80;8.18;;;;;;;13.59;73.58;98221.52;1727512;82;21053;-43
2022/09/27 02:30:00;;;;;;;10.85;8.08;;;;;;;13.58;73.53;98215.29;1691068;83;21555;-44
2022/09/27 02:32:28;;;;;;;12.03;8.08;;;;;;;13.54;73.61;98216.51;1718083;83;21831;-44
2022/09/27 02:34:58;;;;;;;7.50;6.70;;;;;;;13.55;73.67;98212.61;1719193;83;21547;-44
2022/09/27 02:37:25;;;;;;;10.70;7.47;;;;;;;13.60;73.60;98204.77;1719605;83;21100;-44
2022/09/27 02:39:52;;;;;;;12.00;8.18;;;;;;;13.65;73.53;98202.19;1719521;83;21558;-44
2022/09/27 02:42:19;;;;;;;9.63;8.65;;;;;;;13.68;73.60;98198.64;1719512;83;21036;-44
2022/09/27 02:44:46;;;;;;;10.50;8.28;;;;;;;13.70;73.56;98188.13;1719422;83;21242;-44
2022/09/27 02:47:35;;;;;;;12.03;8.78;;;;;;;13.70;73.37;98186.14;1719319;83;21609;-44
2022/09/27 02:50:29;;;;;;;;;;;;;;;13.68;73.36;98183.66;1721246;83;21012;-44
2022/09/27 02:53:27;;;;;;;13.10;8.35;;;;;;;13.68;73.19;98187.75;1708471;83;20489;-44
2022/09/27 02:56:26;;;;;;;10.08;8.93;;;;;;;13.55;73.69;98188.88;1718579;83;21037;-44
2022/09/27 02:59:26;;;;;;;10.88;9.75;;;;;;;13.57;73.77;98193.31;1700630;83;21599;-44
2022/09/27 03:02:30;;;;;;;10.90;8.70;;;;;;;13.55;73.84;98192.20;1709119;83;20941;-44
2022/09/27 03:05:06;;;;;;;10.58;9.25;;;;;;;13.56;73.91;98185.55;1714255;83;21041;-44
2022/09/27 03:07:34;;;;;;;11.65;9.93;;;;;;;13.61;73.84;98181.78;1719702;83;21041;-44
2022/09/27 03:10:01;;;;;;;12.25;9.45;;;;;;;13.62;73.96;98177.11;1719428;83;21056;-44
2022/09/27 03:12:29;;;;;;;11.05;9.68;;;;;;;13.63;73.85;98187.61;1719737;83;22126;-44
2022/09/27 03:14:58;;;;;;;11.95;10.40;;;;;;;13.63;73.88;98186.25;1719399;83;21018;-43
2022/09/27 03:17:27;;;;;;;12.07;9.78;;;;;;;13.68;73.84;98179.58;1715387;83;21075;-43
2022/09/27 03:20:14;;;;;;;11.83;9.58;;;;;;;13.72;73.57;98181.07;1719789;83;21566;-43
2022/09/27 03:22:46;;;;;;;14.10;10.78;;;;;;;13.70;73.61;98176.61;1718797;83;21041;-43
2022/09/27 03:25:13;;;;;;;13.83;10.98;;;;;;;13.70;73.70;98186.76;1719506;83;23117;-43
2022/09/27 03:27:41;;;;;;;12.33;9.98;;;;;;;13.71;73.73;98182.83;1719498;82;21101;-44
2022/09/27 03:30:11;;;;;;;11.93;9.95;;;;;;;13.74;73.64;98190.20;1719367;83;20980;-44
2022/09/27 03:32:43;;;;;;;15.23;10.95;;;;;;;13.78;73.47;98190.34;1691735;83;21519;-44
2022/09/27 03:35:22;;;;;;;15.68;11.60;;;;;;;13.78;73.41;98186.25;1718780;83;21036;-44
2022/09/27 03:37:50;;;;;;;14.78;11.45;;;;;;;13.76;73.53;98190.55;1719396;83;21375;-44
2022/09/27 03:42:14;;;;;;;13.93;10.88;;;;;;;13.82;73.48;98184.25;1774522;79;22658;-43
2022/09/27 03:44:43;;;;;;;16.80;11.93;;;;;;;13.78;73.50;98184.12;1745696;82;20974;-44
2022/09/27 03:47:11;;;;;;;13.45;11.25;;;;;;;13.82;73.55;98184.84;1745905;82;21184;-44
2022/09/27 03:49:38;;;;;;;15.83;12.70;;;;;;;13.82;73.41;98173.36;1745925;82;20963;-44
2022/09/27 03:52:05;;;;;;;17.35;12.68;;;;;;;13.79;73.46;98176.91;1745831;82;21057;-44
2022/09/27 03:54:33;;;;;;;14.83;11.57;;;;;;;13.75;73.42;98175.38;1745903;82;20927;-44
2022/09/27 03:57:02;;;;;;;17.12;12.07;;;;;;;13.72;73.54;98176.21;1740690;82;20967;-43
2022/09/27 03:59:30;;;;;;;13.83;12.07;;;;;;;13.74;73.55;98178.72;1745962;82;21130;-44
2022/09/27 04:02:15;;;;;;;16.50;12.65;;;;;;;13.75;73.66;98175.38;1745878;82;21573;-44
2022/09/27 04:04:56;;;;;;;16.30;12.65;;;;;;;13.74;73.85;98175.22;1741459;82;21576;-44
2022/09/27 04:07:24;;;;;;;15.95;12.50;;;;;;;13.74;73.84;98177.36;1745983;82;21026;-44
2022/09/27 04:09:51;;;;;;;19.65;12.28;;;;;;;13.77;73.80;98171.67;1745880;82;21046;-44
2022/09/27 04:12:18;;;;;;;14.43;12.40;;;;;;;13.84;73.59;98170.23;1746115;82;21203;-44
2022/09/27 04:14:45;;;;;;;15.18;12.82;;;;;;;13.86;73.53;98167.85;1745897;82;21575;-43
2022/09/27 04:17:31;;;;;;;15.85;13.98;;;;;;;13.85;73.50;98162.22;1746252;82;21007;-43
2022/09/27 04:20:05;;;;;;;17.92;12.93;;;;;;;13.83;73.60;98163.23;1741294;82;21642;-43
2022/09/27 04:22:32;;;;;;;18.30;12.53;;;;;;;13.83;73.44;98161.28;1746210;82;21043;-43
2022/09/27 04:24:59;;;;;;;16.02;13.08;;;;;;;13.87;73.42;98153.05;1746080;82;21086;-43
2022/09/27 04:27:29;;;;;;;19.80;13.70;;;;;;;13.88;73.36;98152.66;1745101;82;20983;-43
2022/09/27 04:29:57;;;;;;;15.68;14.03;;;;;;;13.85;73.40;98149.95;1745754;82;20943;-43
2022/09/27 04:32:44;;;;;;;16.70;13.10;;;;;;;13.80;73.52;98149.05;1769534;80;21068;-43
2022/09/27 04:38:06;;;;;;;16.57;13.80;;;;;;;13.80;73.68;98135.43;1787822;80;21958;-44
2022/09/27 04:40:34;;;;;;;18.82;14.23;;;;;;;13.80;73.73;98134.07;1786028;80;21581;-44
2022/09/27 04:43:03;;;;;;;19.10;14.70;;;;;;;13.80;73.85;98127.26;1779946;80;21522;-44
2022/09/27 04:45:30;;;;;;;11.77;10.03;;;;;;;13.77;73.81;98127.50;1780125;80;21072;-44
2022/09/27 04:47:57;;;;;;;16.93;14.15;;;;;;;13.74;73.78;98124.83;1780046;80;21530;-44
2022/09/27 04:50:25;;;;;;;19.75;14.90;;;;;;;13.75;73.85;98119.55;1779985;80;21554;-44
2022/09/27 04:52:54;;;;;;;20.30;16.02;;;;;;;13.74;74.00;98117.44;1777756;80;21530;-44
2022/09/27 04:55:21;;;;;;;20.35;15.38;;;;;;;13.73;74.16;98122.70;1779375;80;20961;-44
2022/09/27 04:57:50;;;;;;;16.62;14.83;;;;;;;13.72;74.30;98121.15;1779588;80;21002;-44
2022/09/27 05:00:18;;;;;;;15.45;13.35;;;;;;;13.76;74.34;98118.37;1779652;80;21617;-44
2022/09/27 05:02:47;;;;;;;17.00;15.10;;;;;;;13.84;74.25;98121.20;1751201;80;22076;-44
2022/09/27 05:05:24;;;;;;;16.67;14.80;;;;;;;13.91;74.15;98121.08;1753559;80;20970;-44
2022/09/27 05:07:53;;;;;;;19.48;15.72;;;;;;;13.92;74.17;98115.23;1779367;80;20929;-44
2022/09/27 05:10:21;;;;;;;17.13;15.40;;;;;;;13.95;74.06;98117.70;1778088;80;21000;-44
2022/09/27 05:12:49;;;;;;;17.87;14.93;;;;;;;13.99;73.84;98114.33;1779387;80;20990;-44
2022/09/27 05:15:16;;;;;;;17.05;14.83;;;;;;;14.05;73.77;98116.00;1779548;80;21131;-44
2022/09/27 05:17:55;;;;;;;16.97;14.85;;;;;;;14.12;73.52;98113.19;1703454;84;22188;-44
2022/09/27 05:20:40;;;;;;;20.00;16.42;;;;;;;14.12;73.54;98123.50;1779658;80;21693;-44
2022/09/27 05:23:09;;;;;;;18.00;15.45;;;;;;;14.13;73.61;98120.95;1751426;80;20937;-44
2022/09/27 05:25:37;;;;;;;16.87;14.03;;;;;;;14.13;73.50;98122.32;1779523;80;21029;-44
2022/09/27 05:28:05;;;;;;;16.37;14.58;;;;;;;14.15;73.43;98119.94;1779625;80;21095;-44
2022/09/27 05:30:32;;;;;;;18.37;14.58;;;;;;;14.23;73.26;98121.98;1779701;80;20929;-44
2022/09/27 05:33:01;;;;;;;17.25;14.98;;;;;;;14.25;73.12;98116.28;1775405;80;21023;-44
2022/09/27 05:35:28;;;;;;;18.73;16.25;;;;;;;14.26;73.01;98117.83;1779573;80;20902;-44
2022/09/27 05:37:58;;;;;;;17.98;16.07;;;;;;;14.25;73.01;98109.47;1779470;80;21064;-44
2022/09/27 05:40:25;;;;;;;19.85;15.63;;;;;;;14.25;73.00;98105.38;1750826;80;21221;-43
2022/09/27 05:42:53;;;;;;;16.10;14.15;;;;;;;14.25;73.03;98108.10;1779382;80;21008;-44
2022/09/27 05:45:21;;;;;;;19.05;15.50;;;;;;;14.29;72.83;98102.58;1779439;80;20972;-44
2022/09/27 05:47:56;;;;;;;22.95;16.20;;;;;;;14.31;72.86;98110.55;1779734;80;21561;-44
2022/09/27 05:50:24;;;;;;;20.15;16.37;;;;;;;14.32;72.89;98115.41;1779476;80;20950;-44
2022/09/27 05:52:51;;;;;;;18.35;15.48;;;;;;;14.32;72.91;98116.17;1777116;80;21125;-44
2022/09/27 05:55:20;;;;;;;21.97;16.60;;;;;;;14.35;72.79;98116.70;1748576;82;20933;-44
2022/09/27 05:57:56;;;;;;;19.27;16.75;;;;;;;14.42;72.65;98113.72;1748534;81;21020;-44
2022/09/27 06:00:26;;;;;;;18.00;16.20;;;;;;;14.44;72.57;98112.11;1720942;82;21521;-44
2022/09/27 06:02:55;;;;;;;20.15;17.52;;;;;;;14.44;72.66;98112.70;1748556;81;21032;-44
2022/09/27 06:05:40;;;;;;;17.73;15.80;;;;;;;14.41;72.57;98109.45;1748506;81;21253;-44
2022/09/27 06:08:27;;;;;;;20.30;16.07;;;;;;;14.37;72.87;98111.47;1747344;82;21593;-43
2022/09/27 06:11:04;;;;;;;18.75;16.75;;;;;;;14.39;72.93;98107.72;1748437;82;20988;-43
2022/09/27 06:13:32;;;;;;;19.60;16.30;;;;;;;14.45;72.92;98103.34;1721538;82;21088;-44
2022/09/27 06:16:01;;;;;;;21.30;17.30;;;;;;;14.48;73.12;98114.77;1748396;82;21096;-43
2022/09/27 06:18:28;;;;;;;20.65;17.42;;;;;;;14.52;73.08;98118.23;1749010;82;21042;-44
2022/09/27 06:21:01;;;;;;;20.75;16.02;;;;;;;14.54;72.82;98124.02;1748381;81;21019;-44
2022/09/27 06:23:28;;;;;;;21.45;17.45;;;;;;;14.56;72.72;98133.34;1748511;82;20973;-44
2022/09/27 06:25:58;;;;;;;22.65;17.67;;;;;;;14.61;72.61;98137.55;1748449;81;21073;-44
2022/09/27 06:28:28;;;;;;;21.93;17.32;;;;;;;14.64;72.55;98147.63;1698845;82;21111;-44
2022/09/27 06:30:59;;;;;;;20.92;18.73;;;;;;;14.63;72.50;98148.80;1748782;82;21162;-44
2022/09/27 06:33:27;;;;;;;22.42;18.07;;;;;;;14.62;72.56;98145.30;1748125;82;20976;-44
2022/09/27 06:35:56;;;;;;;20.62;17.85;;;;;;;14.60;72.50;98137.37;1748643;82;20977;-44
2022/09/27 06:38:24;;;;;;;19.87;17.55;;;;;;;14.59;72.48;98133.87;1721295;82;21373;-44
2022/09/27 06:40:57;;;;;;;20.10;17.92;;;;;;;14.66;72.45;98122.08;1745880;82;21041;-44
2022/09/27 06:43:25;;;;;;;27.13;21.57;;;;;;;14.68;72.34;98114.23;1735047;82;21885;-44
2022/09/27 06:46:04;;;;;;;26.35;21.60;;;;;;;14.64;72.38;98106.11;1736208;82;20944;-44
2022/09/27 06:48:37;;;;;;;18.80;15.83;;;;;;;14.61;72.42;98106.95;1728359;82;21025;-44
2022/09/27 06:51:07;;;;;;;24.55;19.48;;;;;;;14.61;72.57;98106.19;1734550;82;21053;-44
2022/09/27 06:53:35;;;;;;;23.25;20.72;;;;;;;14.62;72.57;98099.55;1736071;82;21100;-44
2022/09/27 06:56:02;;;;;;;24.70;20.15;;;;;;;14.68;72.49;98097.86;1736089;82;21229;-44
2022/09/27 07:01:37;;;;;;;25.48;21.37;;;;;;;14.69;72.54;98103.50;1736070;82;20989;-44
2022/09/27 07:04:24;;;;;;;23.22;20.12;;;;;;;14.68;72.58;98111.50;1736000;82;20914;-44
2022/09/27 07:06:58;;;;;;;24.43;20.05;;;;;;;14.69;72.55;98115.19;1735989;82;20969;-44
2022/09/27 07:09:26;;;;;;;22.50;19.80;;;;;;;14.76;72.33;98112.94;1735871;82;23147;-44
2022/09/27 07:11:54;;;;;;;27.62;21.82;;;;;;;14.76;72.35;98104.75;1735936;82;21018;-44
2022/09/27 07:14:22;;;;;;;27.77;21.95;;;;;;;14.76;72.49;98113.68;1736060;82;21013;-44
2022/09/27 07:16:49;;;;;;;24.18;19.95;;;;;;;14.77;72.56;98119.31;1735960;82;21239;-44
2022/09/27 07:19:18;;;;;;;25.68;20.25;;;;;;;14.82;72.47;98128.20;1736121;82;21076;-44
2022/09/27 07:21:46;;;;;;;28.47;21.85;;;;;;;14.90;72.42;98124.95;1735950;82;21243;-44
2022/09/27 07:24:13;;;;;;;25.48;22.48;;;;;;;14.96;72.34;98117.80;1745646;82;20898;-44
2022/09/27 07:26:42;;;;;;;26.95;21.35;;;;;;;14.98;72.19;98111.34;1745782;82;20969;-44
2022/09/27 07:29:11;;;;;;;24.85;21.68;;;;;;;15.00;71.97;98106.84;1745733;82;21571;-44
2022/09/27 07:31:38;;;;;;;24.98;21.48;;;;;;;14.97;71.89;98102.97;1745693;82;21092;-44
2022/09/27 07:34:06;;;;;;;24.00;20.08;;;;;;;14.95;72.05;98099.91;1745724;82;21143;-44
2022/09/27 07:36:34;;;;;;;23.70;20.48;;;;;;;14.99;71.94;98110.16;1700207;84;21089;-44
2022/09/27 07:39:02;;;;;;;26.87;21.30;;;;;;;15.01;71.99;98102.31;1700050;84;20972;-44
2022/09/27 07:41:31;;;;;;;29.73;23.13;;;;;;;15.02;72.21;98086.11;1642439;84;21543;-44
2022/09/27 07:43:58;;;;;;;27.25;21.77;;;;;;;15.05;72.25;98101.67;1657139;86;21080;-44
2022/09/27 07:46:26;;;;;;;25.60;20.88;;;;;;;15.07;72.32;98107.46;1635359;87;21111;-44
2022/09/27 07:48:58;;;;;;;26.75;21.07;;;;;;;15.09;72.36;98105.69;1661459;86;21050;-44
2022/09/27 07:51:31;;;;;;;28.45;21.17;;;;;;;15.16;72.14;98109.04;1630628;86;21121;-44
2022/09/27 07:54:00;;;;;;;29.07;23.03;;;;;;;15.22;72.05;98105.23;1634571;87;21547;-44
2022/09/27 07:56:38;;;;;;;32.67;23.70;;;;;;;15.25;71.98;98098.17;1663519;86;21570;-44
2022/09/27 07:59:07;;;;;;;27.40;23.22;;;;;;;15.21;71.91;98104.45;1663426;86;21108;-44
2022/09/27 08:01:34;;;;;;;31.27;22.32;;;;;;;15.17;71.87;98100.26;1657111;86;21049;-44
2022/09/27 08:04:01;;;;;;;27.67;22.70;;;;;;;15.16;71.98;98095.39;1683735;83;20973;-44
2022/09/27 08:06:30;;;;;;;30.57;23.65;;;;;;;15.20;72.14;98098.06;1712376;83;21105;-44
2022/09/27 08:08:59;;;;;;;30.97;24.10;;;;;;;15.20;72.29;98094.72;1678188;85;21027;-44
2022/09/27 08:11:27;;;;;;;35.43;25.32;;;;;;;15.22;72.51;98095.08;1678273;85;21209;-44
2022/09/27 08:13:55;;;;;;;32.40;24.45;;;;;;;15.26;72.50;98096.95;1678044;85;21030;-44
2022/09/27 08:16:24;;;;;;;30.00;22.52;;;;;;;15.28;72.38;98100.82;1678372;85;20948;-44
2022/09/27 08:19:10;;;;;;;32.25;24.37;;;;;;;15.36;72.27;98100.84;1712483;83;21547;-44
2022/09/27 08:21:39;;;;;;;32.38;24.80;;;;;;;15.37;72.02;98092.83;1711776;83;21017;-44
2022/09/27 08:24:14;;;;;;;33.10;24.90;;;;;;;15.36;72.13;98101.44;1712224;83;21139;-44
2022/09/27 08:26:52;;;;;;;34.33;25.92;;;;;;;15.33;72.18;98101.70;1710228;83;21555;-44
2022/09/27 08:29:22;;;;;;;29.27;23.27;;;;;;;15.32;72.27;98103.47;1711280;83;21033;-44
2022/09/27 08:31:52;;;;;;;34.00;24.37;;;;;;;15.34;72.36;98102.47;1712217;83;21041;-44
2022/09/27 08:34:20;;;;;;;26.45;19.35;;;;;;;15.35;72.23;98103.39;1712887;83;21092;-44
2022/09/27 08:36:47;;;;;;;36.48;26.50;;;;;;;15.38;72.42;98099.06;1712496;83;21234;-44
2022/09/27 08:39:15;;;;;;;34.20;24.85;;;;;;;15.38;72.62;98088.14;1678310;85;21805;-44
2022/09/27 08:41:56;;;;;;;34.88;24.37;;;;;;;15.38;72.68;98093.61;1680418;84;21078;-44
2022/09/27 08:44:41;;;;;;;30.43;24.12;;;;;;;15.42;72.70;98094.30;1679845;85;20980;-44
2022/09/27 08:47:32;;;;;;;31.70;24.60;;;;;;;15.47;72.82;98095.94;1706344;84;21034;-44
2022/09/27 08:50:33;;;;;;;35.83;27.17;;;;;;;15.53;72.44;98099.75;1678484;84;21327;-44
2022/09/27 08:53:22;;;;;;;35.55;26.37;;;;;;;15.54;72.50;98102.63;1706581;84;21036;-44
2022/09/27 08:55:52;;;;;;;33.08;25.55;;;;;;;15.51;72.54;98102.13;1706122;84;20934;-44
2022/09/27 08:58:31;;;;;;;34.43;25.55;;;;;;;15.55;72.59;98093.84;1706725;83;21589;-44
2022/09/27 09:01:02;;;;;;;33.20;25.75;;;;;;;15.61;72.57;98088.83;1706693;84;20990;-44
2022/09/27 09:03:36;;;;;;;35.92;27.52;;;;;;;15.68;72.44;98076.98;1707079;84;21834;-44
2022/09/27 09:06:27;;;;;;;41.88;27.87;;;;;;;15.71;72.47;98072.63;1706925;84;20958;-44
2022/09/27 09:09:39;;;;;;;31.25;25.17;;;;;;;15.74;72.43;98078.00;1707072;84;21042;-44
2022/09/27 09:12:46;;;;;;;30.10;24.07;;;;;;;15.78;72.15;98077.95;1706861;84;21033;-44
2022/09/27 09:15:59;;;;;;;36.85;25.77;;;;;;;15.80;72.16;98079.05;1706458;84;21085;-44
2022/09/27 09:18:52;;;;;;;34.85;26.27;;;;;;;15.83;72.11;98084.27;1706068;84;21253;-44
2022/09/27 09:22:05;;;;;;;36.55;27.13;;;;;;;15.80;72.05;98072.81;1703740;84;21056;-44
2022/09/27 09:24:50;;;;;;;34.18;26.37;;;;;;;15.79;72.08;98072.03;1706858;84;20985;-44
2022/09/27 09:27:43;;;;;;;36.40;26.77;;;;;;;15.80;72.26;98077.68;1706682;84;21039;-44
2022/09/27 09:30:26;;;;;;;38.67;28.50;;;;;;;15.87;72.41;98084.36;1706653;84;21057;-44
2022/09/27 09:33:24;;;;;;;37.63;27.02;;;;;;;15.89;72.37;98085.28;1706296;84;21095;-44
2022/09/27 09:36:02;;;;;;;36.40;26.50;;;;;;;15.88;72.17;98094.08;1706593;84;21045;-44
2022/09/27 09:38:53;;;;;;;29.77;23.80;;;;;;;15.84;72.16;98081.69;1706740;84;21045;-44
2022/09/27 09:41:25;;;;;;;30.05;23.50;;;;;;;15.84;72.24;98075.63;1706797;84;21057;-44
2022/09/27 09:43:57;;;;;;;31.93;23.95;;;;;;;15.91;72.14;98076.08;1701956;84;21087;-45
2022/09/27 09:46:41;;;;;;;31.80;24.43;;;;;;;15.94;72.14;98075.98;1701367;84;21240;-45
2022/09/27 09:49:19;;;;;;;32.93;25.23;;;;;;;15.95;72.10;98077.53;1701287;84;21021;-44
2022/09/27 09:52:10;;;;;;;32.53;22.95;;;;;;;15.93;72.08;98070.34;1701283;84;20970;-44
2022/09/27 09:55:04;;;;;;;32.50;24.12;;;;;;;15.95;72.02;98078.90;1701308;84;21094;-44
2022/09/27 09:57:42;;;;;;;32.48;24.63;;;;;;;16.02;72.08;98077.97;1701144;84;21038;-44
2022/09/27 10:00:16;;;;;;;32.17;23.35;;;;;;;16.06;71.96;98075.33;1700509;84;21847;-43
2022/09/27 10:02:47;;;;;;;32.13;24.67;;;;;;;16.06;71.94;98066.35;1701023;84;21046;-44
2022/09/27 10:05:20;;;;;;;29.48;22.37;;;;;;;16.07;71.95;98067.27;1700645;84;20986;-45
2022/09/27 10:07:51;;;;;;;27.55;21.75;;;;;;;16.09;71.74;98069.59;1701134;84;21527;-44
2022/09/27 10:10:19;;;;;;;30.08;22.95;;;;;;;16.15;71.75;98070.63;1701574;84;21030;-44
2022/09/27 10:12:55;;;;;;;28.83;23.20;;;;;;;16.20;71.79;98072.07;1698281;84;21246;-44
2022/09/27 10:15:27;;;;;;;30.97;23.52;;;;;;;16.18;71.57;98068.39;1701005;84;21021;-44
2022/09/27 10:17:57;;;;;;;33.60;24.15;;;;;;;16.16;71.58;98068.66;1697281;84;21042;-45
2022/09/27 10:20:36;;;;;;;33.30;23.60;;;;;;;16.10;71.79;98072.50;1701490;84;21006;-44
2022/09/27 10:23:20;;;;;;;21.50;16.63;;;;;;;16.12;72.03;98069.34;1701367;84;21603;-44
2022/09/27 10:26:02;;;;;;;31.90;24.45;;;;;;;16.16;71.84;98063.19;1681002;84;21111;-44
2022/09/27 10:28:42;;;;;;;30.75;24.32;;;;;;;16.15;71.96;98056.95;1699783;84;21540;-44
2022/09/27 10:31:13;;;;;;;34.33;24.10;;;;;;;16.19;72.23;98059.59;1701281;84;21038;-44
2022/09/27 10:33:58;;;;;;;28.38;22.13;;;;;;;16.28;72.21;98057.02;1700387;84;21556;-44
2022/09/27 10:36:31;;;;;;;25.17;20.25;;;;;;;16.37;71.88;98055.81;1681044;84;21106;-44
2022/09/27 10:39:01;;;;;;;29.57;22.65;;;;;;;16.48;71.47;98055.72;1701198;84;21197;-44
2022/09/27 10:41:35;;;;;;;29.80;23.27;;;;;;;16.56;71.25;98059.02;1699633;84;21619;-44
2022/09/27 10:44:20;;;;;;;27.87;23.05;;;;;;;16.59;70.89;98054.11;1703365;82;20948;-44
2022/09/27 10:46:56;;;;;;;33.60;24.07;;;;;;;16.60;70.78;98058.98;1704055;84;21058;-44
2022/09/27 10:49:39;;;;;;;24.85;20.52;;;;;;;16.60;70.65;98046.08;1690952;83;21559;-44
2022/09/27 10:52:27;;;;;;;24.72;20.90;;;;;;;16.65;70.44;98046.15;1702971;84;21133;-44
2022/09/27 10:54:59;;;;;;;27.55;21.42;;;;;;;16.71;70.17;98049.28;1703438;84;21045;-44
2022/09/27 10:57:28;;;;;;;26.02;21.10;;;;;;;16.76;70.18;98045.24;1703283;84;21108;-44
2022/09/27 10:59:59;;;;;;;31.10;22.80;;;;;;;16.80;70.18;98048.05;1703857;84;21104;-44
2022/09/27 11:02:35;;;;;;;31.60;22.40;;;;;;;16.81;69.97;98037.88;1704136;84;21124;-44
2022/09/27 11:05:14;;;;;;;25.05;20.17;;;;;;;16.81;69.84;98037.88;1704039;84;21225;-44
2022/09/27 11:07:54;;;;;;;24.05;20.40;;;;;;;16.82;69.70;98042.92;1703948;83;20982;-44
2022/09/27 11:10:32;;;;;;;25.70;21.48;;;;;;;16.88;69.54;98037.09;1704145;83;21495;-44
2022/09/27 11:13:15;;;;;;;26.25;20.55;;;;;;;16.93;69.55;98026.98;1703956;84;21559;-44
2022/09/27 11:16:27;;;;;;;27.50;21.45;;;;;;;17.01;69.44;98015.81;1703809;83;21368;-44
2022/09/27 11:19:29;;;;;;;25.00;20.77;;;;;;;16.84;69.22;97971.33;1703922;84;21286;-44
2022/09/27 11:22:40;;;;;;;24.20;19.75;;;;;;;17.11;69.07;98010.04;1703588;84;21061;-44
2022/09/27 11:25:48;;;;;;;26.80;19.48;;;;;;;17.14;68.69;98015.23;1703794;84;21030;-44
2022/09/27 11:28:38;;;;;;;23.65;19.70;;;;;;;17.22;68.84;98011.10;1703644;83;21909;-44
2022/09/27 11:31:49;;;;;;;25.45;20.45;;;;;;;17.31;68.58;98016.70;1703864;83;21542;-44
2022/09/27 11:34:27;;;;;;;25.65;20.30;;;;;;;17.39;68.17;98016.05;1704010;84;21235;-44
2022/09/27 11:37:13;;;;;;;24.65;19.40;;;;;;;17.45;67.96;98020.38;1700447;84;20965;-44
2022/09/27 11:40:01;;;;;;;21.93;18.60;;;;;;;17.48;67.70;98016.75;1703886;84;21037;-44
2022/09/27 11:43:02;;;;;;;20.75;18.02;;;;;;;17.50;67.41;98008.88;1707307;84;22325;-44
2022/09/27 11:45:56;;;;;;;22.13;18.57;;;;;;;17.54;67.00;98007.39;1703883;84;21046;-44
2022/09/27 11:48:39;;;;;;;22.75;18.35;;;;;;;17.48;66.98;98004.42;1704097;83;22033;-44
2022/09/27 11:51:45;;;;;;;24.57;18.70;;;;;;;17.49;67.03;98001.86;1694358;83;21519;-44
2022/09/27 11:54:44;;;;;;;24.57;20.62;;;;;;;17.52;66.78;98006.48;1675472;85;21037;-44
2022/09/27 11:57:34;;;;;;;24.12;19.00;;;;;;;17.54;66.59;98015.02;1675363;85;20983;-44
2022/09/27 12:00:16;;;;;;;28.10;19.20;;;;;;;17.59;66.44;98009.02;1675406;85;21030;-44
2022/09/27 12:03:11;;;;;;;23.52;19.30;;;;;;;17.67;66.57;98012.32;1675488;85;22082;-44
2022/09/27 12:06:09;;;;;;;25.77;19.02;;;;;;;17.72;66.14;98011.73;1675628;85;20985;-44
2022/09/27 12:08:58;;;;;;;24.77;19.92;;;;;;;17.69;66.15;98013.40;1675658;85;21065;-44
2022/09/27 12:11:31;;;;;;;25.52;20.10;;;;;;;17.65;66.35;98005.90;1675736;85;20974;-44